createdAt,value
2018-06-15T00:01:27.935Z,27.67
2018-06-15T00:06:30.042Z,28.07
2018-06-15T00:11:32.198Z,31.70
2018-06-15T00:16:34.353Z,36.53
2018-06-15T00:21:36.476Z,33.13
2018-06-15T00:26:38.882Z,34.00
2018-06-15T00:31:41.037Z,31.67
2018-06-15T00:36:43.164Z,27.33
2018-06-15T00:41:45.306Z,26.60
2018-06-15T00:46:47.489Z,25.53
2018-06-15T00:51:49.640Z,43.43
2018-06-15T00:57:03.410Z,27.27
2018-06-15T01:02:05.539Z,32.17
2018-06-15T01:07:07.638Z,24.43
2018-06-15T01:12:09.782Z,34.50
2018-06-15T01:17:11.899Z,32.03
2018-06-15T01:22:14.032Z,21.80
2018-06-15T01:27:16.172Z,27.83
2018-06-15T01:32:18.291Z,24.53
2018-06-15T01:37:20.425Z,36.90
2018-06-15T01:42:22.543Z,31.17
2018-06-15T01:47:24.705Z,28.83
2018-06-15T01:52:26.818Z,25.07
2018-06-15T01:57:28.979Z,33.33
2018-06-15T02:02:31.131Z,22.03
2018-06-15T02:07:33.299Z,29.10
2018-06-15T02:12:35.469Z,24.40
2018-06-15T02:17:37.594Z,25.57
2018-06-15T02:22:39.748Z,31.03
2018-06-15T02:27:41.871Z,22.23
2018-06-15T02:32:43.994Z,26.43
2018-06-15T02:37:46.105Z,22.40
2018-06-15T02:42:48.237Z,20.10
2018-06-15T02:47:50.374Z,26.20
2018-06-15T02:52:52.512Z,25.83
2018-06-15T02:57:54.634Z,22.90
2018-06-15T03:02:56.794Z,22.03
2018-06-15T03:07:58.956Z,26.70
2018-06-15T03:13:01.094Z,20.57
2018-06-15T03:18:03.234Z,26.70
2018-06-15T03:23:05.397Z,22.63
2018-06-15T03:28:07.574Z,14.93
2018-06-15T03:33:09.718Z,23.63
2018-06-15T03:38:11.856Z,20.60
2018-06-15T03:43:13.987Z,22.30
2018-06-15T03:48:16.168Z,18.53
2018-06-15T03:53:18.291Z,14.80
2018-06-15T03:58:20.435Z,14.10
2018-06-15T04:03:22.540Z,20.23
2018-06-15T04:08:24.680Z,17.10
2018-06-15T04:13:26.809Z,18.80
2018-06-15T04:18:28.917Z,22.50
2018-06-15T04:23:31.065Z,17.50
2018-06-15T04:28:33.199Z,22.27
2018-06-15T04:33:35.323Z,19.90
2018-06-15T04:38:37.927Z,22.73
2018-06-15T04:43:40.081Z,20.53
2018-06-15T04:48:42.267Z,23.80
2018-06-15T04:53:44.419Z,24.53
2018-06-15T04:58:46.537Z,27.33
2018-06-15T05:03:48.660Z,19.23
2018-06-15T05:08:50.786Z,28.37
2018-06-15T05:13:52.922Z,22.77
2018-06-15T05:18:55.343Z,20.60
2018-06-15T05:23:57.513Z,20.63
2018-06-15T05:28:59.656Z,29.47
2018-06-15T05:34:01.799Z,14.77
2018-06-15T05:39:06.954Z,20.13
2018-06-15T05:44:09.095Z,28.00
2018-06-15T05:49:11.262Z,21.87
2018-06-15T05:54:13.405Z,17.57
2018-06-15T05:59:15.548Z,35.43
2018-06-15T06:04:17.675Z,22.27
2018-06-15T06:09:19.819Z,19.43
2018-06-15T06:14:21.966Z,21.87
2018-06-15T06:19:24.079Z,17.23
2018-06-15T06:24:26.199Z,16.50
2018-06-15T06:29:28.309Z,21.00
2018-06-15T06:34:31.046Z,26.30
2018-06-15T06:39:33.157Z,17.10
2018-06-15T06:44:35.283Z,18.17
2018-06-15T06:49:37.459Z,27.90
2018-06-15T06:54:39.586Z,19.77
2018-06-15T06:59:41.725Z,32.30
2018-06-15T07:04:43.840Z,12.90
2018-06-15T07:09:45.984Z,14.30
2018-06-15T07:14:52.373Z,20.70
2018-06-15T07:19:54.473Z,20.80
2018-06-15T07:24:56.625Z,8.80
2018-06-15T07:29:58.753Z,8.20
2018-06-15T07:35:00.927Z,8.93
2018-06-15T07:40:03.146Z,10.07
2018-06-15T07:45:05.523Z,8.50
2018-06-15T07:50:07.730Z,10.53
2018-06-15T07:55:09.886Z,14.50
2018-06-15T08:00:12.057Z,9.20
2018-06-15T08:05:14.208Z,18.10
2018-06-15T08:10:16.407Z,12.40
2018-06-15T08:15:18.537Z,8.50
2018-06-15T08:20:20.827Z,6.83
2018-06-15T08:25:22.962Z,10.57
2018-06-15T08:30:25.133Z,11.13
2018-06-15T08:35:27.291Z,4.40
2018-06-15T08:40:29.448Z,13.33
2018-06-15T08:45:31.921Z,7.00
2018-06-15T08:50:34.107Z,8.10
2018-06-15T08:55:36.418Z,6.33
2018-06-15T09:00:38.550Z,11.73
2018-06-15T09:05:40.705Z,10.47
2018-06-15T09:10:42.828Z,7.27
2018-06-15T09:15:45.002Z,12.17
2018-06-15T09:20:47.170Z,11.50
2018-06-15T09:25:50.303Z,7.10
2018-06-15T09:30:52.453Z,8.23
2018-06-15T09:35:54.567Z,6.20
2018-06-15T09:40:56.682Z,11.07
2018-06-15T09:45:58.861Z,6.30
2018-06-15T09:51:01.070Z,16.27
2018-06-15T09:56:03.254Z,5.73
2018-06-15T10:01:10.270Z,6.77
2018-06-15T10:06:12.497Z,6.30
2018-06-15T10:11:14.585Z,12.23
2018-06-15T10:16:16.698Z,10.47
2018-06-15T10:21:18.842Z,12.13
2018-06-15T10:26:21.063Z,7.30
2018-06-15T10:31:23.659Z,9.67
2018-06-15T10:36:25.952Z,8.00
2018-06-15T10:41:28.121Z,10.27
2018-06-15T10:46:30.310Z,6.23
2018-06-15T10:51:32.547Z,6.33
2018-06-15T10:56:34.733Z,8.40
2018-06-15T11:01:36.887Z,5.87
2018-06-15T11:06:39.064Z,12.47
2018-06-15T11:11:41.236Z,14.17
2018-06-15T11:16:43.397Z,6.23
2018-06-15T11:21:45.601Z,12.83
2018-06-15T11:26:47.770Z,6.23
2018-06-15T11:31:49.952Z,6.50
2018-06-15T11:36:52.100Z,8.73
2018-06-15T11:41:54.256Z,10.97
2018-06-15T11:46:56.418Z,13.30
2018-06-15T11:51:58.768Z,5.57
2018-06-15T11:57:00.892Z,8.27
2018-06-15T12:02:03.043Z,8.60
2018-06-15T12:07:05.218Z,5.33
2018-06-15T12:12:07.425Z,7.43
2018-06-15T12:17:09.619Z,4.80
2018-06-15T12:22:11.793Z,7.33
2018-06-15T12:27:13.987Z,5.07
2018-06-15T12:32:16.164Z,6.83
2018-06-15T12:37:18.380Z,9.70
2018-06-15T12:42:20.551Z,8.30
2018-06-15T12:47:22.718Z,10.20
2018-06-15T12:52:24.900Z,9.03
2018-06-15T12:57:27.049Z,4.80
2018-06-15T13:02:29.199Z,8.97
2018-06-15T13:07:31.334Z,5.97
2018-06-15T13:12:33.515Z,7.87
2018-06-15T13:17:35.662Z,12.00
2018-06-15T13:22:37.827Z,6.53
2018-06-15T13:27:39.982Z,4.60
2018-06-15T13:32:42.134Z,9.60
2018-06-15T13:37:44.278Z,8.10
2018-06-15T13:42:53.402Z,8.57
2018-06-15T13:47:55.587Z,6.00
2018-06-15T13:52:57.800Z,8.50
2018-06-15T13:57:59.941Z,8.40
2018-06-15T14:03:02.170Z,5.37
2018-06-15T14:08:05.011Z,6.07
2018-06-15T14:13:07.136Z,6.77
2018-06-15T14:18:09.340Z,8.10
2018-06-15T14:23:11.491Z,9.10
2018-06-15T14:28:13.697Z,6.93
2018-06-15T14:33:15.885Z,8.53
2018-06-15T14:38:18.076Z,8.70
2018-06-15T14:43:20.284Z,8.03
2018-06-15T14:48:22.418Z,9.23
2018-06-15T14:53:24.636Z,11.10
2018-06-15T14:58:27.154Z,8.87
2018-06-15T15:03:29.281Z,7.60
2018-06-15T15:08:31.551Z,8.33
2018-06-15T15:13:33.688Z,6.73
2018-06-15T15:18:35.879Z,11.90
2018-06-15T15:23:38.037Z,10.33
2018-06-15T15:28:40.226Z,8.27
2018-06-15T15:33:42.502Z,8.53
2018-06-15T15:38:45.172Z,7.03
2018-06-15T15:43:47.388Z,11.93
2018-06-15T15:48:49.553Z,8.73
2018-06-15T15:53:51.737Z,8.20
2018-06-15T15:58:53.926Z,8.43
2018-06-15T16:03:56.098Z,10.60
2018-06-15T16:08:58.276Z,8.60
2018-06-15T16:14:00.449Z,10.20
2018-06-15T16:19:02.609Z,11.83
2018-06-15T16:24:04.963Z,5.67
2018-06-15T16:29:07.175Z,9.33
2018-06-15T16:34:09.551Z,9.57
2018-06-15T16:39:11.729Z,4.43
2018-06-15T16:44:13.874Z,9.07
2018-06-15T16:49:16.021Z,6.90
2018-06-15T16:54:18.313Z,12.00
2018-06-15T16:59:20.493Z,5.53
2018-06-15T17:04:22.663Z,6.77
2018-06-15T17:09:24.868Z,12.10
2018-06-15T17:14:27.026Z,9.30
2018-06-15T17:19:29.275Z,10.30
2018-06-15T17:24:31.372Z,10.87
2018-06-15T17:29:33.510Z,12.27
2018-06-15T17:34:35.677Z,10.60
2018-06-15T17:39:37.804Z,9.60
2018-06-15T17:44:39.983Z,18.27
2018-06-15T17:49:42.295Z,4.97
2018-06-15T17:54:44.488Z,10.90
2018-06-15T17:59:46.702Z,7.20
2018-06-15T18:04:48.856Z,12.27
2018-06-15T18:09:51.037Z,13.10
2018-06-15T18:14:53.253Z,6.20
2018-06-15T18:19:55.445Z,5.07
2018-06-15T18:24:57.611Z,14.60
2018-06-15T18:29:59.803Z,12.00
2018-06-15T18:35:02.063Z,8.10
2018-06-15T18:40:04.320Z,10.80
2018-06-15T18:45:06.489Z,11.10
2018-06-15T18:50:08.687Z,7.67
2018-06-15T18:55:10.967Z,12.10
2018-06-15T19:00:13.195Z,8.63
2018-06-15T19:05:15.374Z,16.40
2018-06-15T19:10:17.564Z,14.00
2018-06-15T19:15:19.736Z,7.27
2018-06-15T19:20:21.919Z,8.60
2018-06-15T19:25:24.099Z,7.27
2018-06-15T19:30:26.288Z,7.73
2018-06-15T19:35:28.475Z,13.53
2018-06-15T19:40:30.662Z,14.50
2018-06-15T19:45:32.842Z,11.20
2018-06-15T19:50:35.044Z,14.13
2018-06-15T19:55:37.237Z,7.30
2018-06-15T20:00:39.428Z,8.07
2018-06-15T20:05:41.610Z,5.07
2018-06-15T20:10:43.790Z,6.40
2018-06-15T20:15:46.041Z,16.03
2018-06-15T20:20:48.240Z,9.37
2018-06-15T20:25:50.430Z,6.43
2018-06-15T20:30:52.692Z,7.67
2018-06-15T20:35:54.792Z,6.90
2018-06-15T20:40:56.992Z,9.63
2018-06-15T20:45:59.185Z,7.97
2018-06-15T20:51:01.382Z,4.50
2018-06-15T20:56:03.702Z,14.83
2018-06-15T21:01:05.908Z,10.60
2018-06-15T21:06:08.228Z,9.43
2018-06-15T21:11:10.329Z,9.23
2018-06-15T21:16:12.607Z,17.10
2018-06-15T21:21:14.826Z,6.07
2018-06-15T21:26:17.012Z,6.90
2018-06-15T21:31:19.224Z,8.63
2018-06-15T21:36:21.394Z,10.10
2018-06-15T21:41:23.591Z,13.80
2018-06-15T21:46:25.981Z,6.30
2018-06-15T21:51:28.182Z,12.60
2018-06-15T21:56:30.383Z,6.67
2018-06-15T22:01:32.566Z,12.70
2018-06-15T22:06:34.788Z,6.83
2018-06-15T22:11:37.047Z,9.03
2018-06-15T22:16:44.798Z,8.30
2018-06-15T22:21:47.087Z,9.10
2018-06-15T22:26:49.253Z,3.30
2018-06-15T22:31:52.332Z,10.13
2018-06-15T22:36:54.516Z,14.93
2018-06-15T22:41:56.707Z,8.10
2018-06-15T22:46:58.877Z,9.10
2018-06-15T22:52:01.039Z,12.07
2018-06-15T22:57:03.254Z,10.50
2018-06-15T23:02:05.636Z,11.50
2018-06-15T23:07:07.801Z,6.43
2018-06-15T23:12:09.949Z,6.90
2018-06-15T23:17:12.566Z,6.90
2018-06-15T23:22:14.972Z,11.43
2018-06-15T23:27:17.467Z,8.00
2018-06-15T23:32:19.881Z,7.83
2018-06-15T23:37:22.453Z,6.90
2018-06-15T23:42:24.857Z,8.77
2018-06-15T23:47:27.406Z,5.30
2018-06-15T23:52:29.725Z,5.67
2018-06-15T23:57:32.350Z,6.10
